createdAt,value
2022-09-15T00:22:36.618Z,100
2022-09-15T00:32:36.625Z,100
2022-09-15T00:42:36.689Z,100
2022-09-15T00:52:36.736Z,100
2022-09-15T01:02:36.738Z,100
2022-09-15T01:12:36.675Z,100
2022-09-15T01:22:36.730Z,100
2022-09-15T01:32:36.728Z,100
2022-09-15T01:42:36.781Z,100
2022-09-15T01:52:36.764Z,100
2022-09-15T02:02:36.812Z,100
2022-09-15T02:12:36.787Z,100
2022-09-15T02:22:36.828Z,100
2022-09-15T02:32:36.844Z,100
2022-09-15T02:42:36.886Z,100
2022-09-15T02:52:36.856Z,100
2022-09-15T03:02:36.917Z,100
2022-09-15T03:12:36.907Z,100
2022-09-15T03:22:36.949Z,100
2022-09-15T03:32:36.936Z,100
2022-09-15T03:42:37.012Z,100
2022-09-15T03:52:36.981Z,100
2022-09-15T04:02:37.020Z,100
2022-09-15T04:12:37.010Z,100
2022-09-15T04:22:37.111Z,100
2022-09-15T04:32:37.129Z,100
2022-09-15T04:42:37.210Z,100
2022-09-15T04:52:37.107Z,100
2022-09-15T05:02:37.129Z,100
2022-09-15T05:12:37.143Z,100
2022-09-15T05:22:41.492Z,100
2022-09-15T05:32:37.159Z,100
2022-09-15T05:42:37.213Z,100
2022-09-15T05:52:37.219Z,100
2022-09-15T06:02:37.293Z,100
2022-09-15T06:12:37.227Z,100
2022-09-15T06:22:37.268Z,100
2022-09-15T06:32:37.263Z,100
2022-09-15T06:42:37.478Z,100
2022-09-15T06:52:37.314Z,100
2022-09-15T07:02:37.442Z,100
2022-09-15T07:12:37.359Z,100
2022-09-15T07:22:37.399Z,100
2022-09-15T07:32:37.382Z,100
2022-09-15T07:42:37.420Z,100
2022-09-15T07:52:37.432Z,100
2022-09-15T08:02:37.497Z,100
2022-09-15T08:12:37.446Z,100
2022-09-15T08:22:37.531Z,100
2022-09-15T08:32:37.486Z,100
2022-09-15T08:42:41.605Z,100
2022-09-15T08:52:37.515Z,100
2022-09-15T09:02:37.629Z,100
2022-09-15T09:12:37.558Z,100
2022-09-15T09:22:37.594Z,100
2022-09-15T09:32:37.574Z,100
2022-09-15T09:42:37.631Z,100
2022-09-15T09:52:37.637Z,100
2022-09-15T10:02:37.673Z,100
2022-09-15T10:12:37.660Z,99.9
2022-09-15T10:22:37.706Z,98.3
2022-09-15T10:32:37.693Z,97
2022-09-15T10:52:37.742Z,92.5
2022-09-15T11:02:37.765Z,90.7
2022-09-15T11:12:37.764Z,87.5
2022-09-15T11:22:37.765Z,87.5
2022-09-15T11:32:37.824Z,87.2
2022-09-15T11:42:37.806Z,86.3
2022-09-15T12:02:37.961Z,83.6
2022-09-15T12:12:37.827Z,79.7
2022-09-15T12:22:37.877Z,77.4
2022-09-15T12:32:37.874Z,76.5
2022-09-15T12:52:37.921Z,73.5
2022-09-15T13:02:37.970Z,72.6
2022-09-15T13:12:37.953Z,72.5
2022-09-15T13:22:37.941Z,73
2022-09-15T13:32:37.979Z,75.4
2022-09-15T13:42:37.986Z,75.4
2022-09-15T13:52:38.017Z,72.2
2022-09-15T14:02:38.171Z,72
2022-09-15T14:12:38.063Z,72.8
2022-09-15T14:22:38.042Z,72.7
2022-09-15T14:42:38.103Z,73.7
2022-09-15T14:52:38.102Z,74.3
2022-09-15T15:02:38.227Z,75
2022-09-15T15:22:38.174Z,77.5
2022-09-15T15:32:38.144Z,78.8
2022-09-15T15:42:38.206Z,79.7
2022-09-15T15:52:38.180Z,81.4
2022-09-15T16:02:38.214Z,81.6
2022-09-15T16:12:38.240Z,82.8
2022-09-15T16:32:38.281Z,81.5
2022-09-15T16:52:38.334Z,81
2022-09-15T17:02:38.311Z,80.7
2022-09-15T17:12:38.345Z,80
2022-09-15T17:22:38.365Z,79.2
2022-09-15T17:32:38.458Z,77.7
2022-09-15T17:42:38.381Z,77.9
2022-09-15T17:52:38.410Z,78.5
2022-09-15T18:02:38.460Z,79.6
2022-09-15T18:12:38.571Z,80.5
2022-09-15T18:22:38.545Z,81.3
2022-09-15T18:32:38.482Z,81.8
2022-09-15T18:42:38.679Z,82.2
2022-09-15T18:52:38.611Z,82.3
2022-09-15T19:02:38.694Z,82.3
2022-09-15T19:12:38.576Z,81.9
2022-09-15T19:22:38.564Z,81.1
2022-09-15T19:32:38.623Z,80.4
2022-09-15T19:42:38.644Z,79.8
2022-09-15T19:52:38.642Z,79.6
2022-09-15T20:02:38.683Z,79.3
2022-09-15T20:12:38.732Z,79.4
2022-09-15T20:22:38.669Z,79.1
2022-09-15T20:32:38.723Z,79
2022-09-15T20:42:38.718Z,79.3
2022-09-15T20:52:38.782Z,79.6
2022-09-15T21:02:38.844Z,80
2022-09-15T21:22:38.805Z,80.3
2022-09-15T21:32:38.800Z,80.8
2022-09-15T21:42:38.823Z,81.1
2022-09-15T21:52:38.831Z,81.7
2022-09-15T22:02:38.873Z,82.3
2022-09-15T22:12:38.877Z,82.3
2022-09-15T22:22:38.929Z,82.7
2022-09-15T22:32:38.914Z,82.5
2022-09-15T22:42:38.958Z,82.8
2022-09-15T22:52:38.957Z,82.8
2022-09-15T23:02:39.007Z,83.4
2022-09-15T23:12:38.998Z,83.9
2022-09-15T23:22:39.024Z,84.2
2022-09-15T23:32:39.019Z,84.7
2022-09-15T23:42:39.066Z,84.8
2022-09-15T23:52:39.067Z,85.2
